NOZ5JA EGPH-ENGM
Flight info
| Callsign | NOZ5JA |
|---|---|
| Flight time | 1h 29m |
| Altitude | 37000 |
| Route | GRICE P600 ASNUD DCT ADN DCT RIGVU DCT ADOPI |
| Aircraft | B738/M-SDE2E3FGHIRWXY/LB1 |
Departure
| Time | 2026-05-07 15:24 |
|---|---|
| Airport | Edinburgh Airport (EGPH) |
Arrival
| Time | 2026-05-07 16:53 |
|---|---|
| Airport | Oslo-Gardermoen International Airport (ENGM) |
| Time | Latitude | Longitude | Altitude | Speed | Heading |
|---|---|---|---|---|---|
| 2026-05-07 14:53 | 55.95036 | -3.36089 | 115 ft | 0 kts | 233° |
| 2026-05-07 15:16 | 55.95038 | -3.36085 | 111 ft | 3 kts | 233° |
| 2026-05-07 15:16 | 55.95054 | -3.36048 | 111 ft | 4 kts | 233° |
| 2026-05-07 15:16 | 55.95069 | -3.36011 | 111 ft | 4 kts | 239° |
| 2026-05-07 15:16 | 55.95078 | -3.35968 | 112 ft | 4 kts | 270° |
| 2026-05-07 15:17 | 55.95074 | -3.35930 | 112 ft | 1 kts | 298° |
| 2026-05-07 15:19 | 55.95075 | -3.35933 | 113 ft | 1 kts | 298° |
| 2026-05-07 15:20 | 55.95081 | -3.35954 | 111 ft | 3 kts | 298° |
| 2026-05-07 15:20 | 55.95095 | -3.36007 | 112 ft | 6 kts | 291° |
| 2026-05-07 15:20 | 55.95111 | -3.36096 | 115 ft | 9 kts | 288° |
| 2026-05-07 15:20 | 55.95156 | -3.36172 | 115 ft | 10 kts | 6° |
| 2026-05-07 15:21 | 55.95202 | -3.36078 | 113 ft | 11 kts | 58° |
| 2026-05-07 15:21 | 55.95243 | -3.35960 | 113 ft | 12 kts | 59° |
| 2026-05-07 15:21 | 55.95285 | -3.35835 | 111 ft | 12 kts | 59° |
| 2026-05-07 15:21 | 55.95330 | -3.35702 | 114 ft | 13 kts | 59° |
| 2026-05-07 15:22 | 55.95378 | -3.35561 | 114 ft | 14 kts | 59° |
| 2026-05-07 15:22 | 55.95430 | -3.35420 | 113 ft | 14 kts | 42° |
| 2026-05-07 15:22 | 55.95515 | -3.35457 | 113 ft | 13 kts | 329° |
| 2026-05-07 15:22 | 55.95567 | -3.35575 | 112 ft | 14 kts | 248° |
| 2026-05-07 15:23 | 55.95519 | -3.35718 | 112 ft | 13 kts | 239° |
| 2026-05-07 15:23 | 55.95393 | -3.36088 | 110 ft | 69 kts | 239° |
| 2026-05-07 15:23 | 55.95030 | -3.37160 | 110 ft | 131 kts | 240° |
| 2026-05-07 15:23 | 55.94513 | -3.38728 | 455 ft | 152 kts | 238° |
| 2026-05-07 15:24 | 55.93997 | -3.40319 | 1326 ft | 151 kts | 237° |
| 2026-05-07 15:24 | 55.93433 | -3.41952 | 2020 ft | 159 kts | 236° |
| 2026-05-07 15:24 | 55.92790 | -3.43774 | 2321 ft | 188 kts | 235° |
| 2026-05-07 15:24 | 55.92062 | -3.45835 | 2586 ft | 209 kts | 235° |
| 2026-05-07 15:25 | 55.91257 | -3.48119 | 2888 ft | 230 kts | 235° |
| 2026-05-07 15:25 | 55.90388 | -3.50632 | 3393 ft | 244 kts | 240° |
| 2026-05-07 15:25 | 55.89981 | -3.53551 | 4315 ft | 249 kts | 267° |
| 2026-05-07 15:25 | 55.90378 | -3.56611 | 5167 ft | 262 kts | 291° |
| 2026-05-07 15:26 | 55.91524 | -3.59199 | 5748 ft | 275 kts | 319° |
| 2026-05-07 15:26 | 55.93305 | -3.60559 | 6000 ft | 288 kts | 350° |
| 2026-05-07 15:26 | 55.95291 | -3.60069 | 5993 ft | 294 kts | 25° |
| 2026-05-07 15:26 | 55.96969 | -3.58108 | 6026 ft | 293 kts | 36° |
| 2026-05-07 15:27 | 55.98633 | -3.56004 | 6004 ft | 293 kts | 36° |
| 2026-05-07 15:27 | 56.00295 | -3.53894 | 6006 ft | 294 kts | 36° |
| 2026-05-07 15:27 | 56.01966 | -3.51766 | 6231 ft | 295 kts | 35° |
| 2026-05-07 15:27 | 56.03822 | -3.50215 | 6955 ft | 296 kts | 6° |
| 2026-05-07 15:28 | 56.05815 | -3.50613 | 7805 ft | 287 kts | 332° |
| 2026-05-07 15:28 | 56.07323 | -3.52779 | 8589 ft | 277 kts | 298° |
| 2026-05-07 15:28 | 56.07881 | -3.55961 | 9353 ft | 268 kts | 265° |
| 2026-05-07 15:28 | 56.07347 | -3.59019 | 10074 ft | 264 kts | 232° |
| 2026-05-07 15:29 | 56.05899 | -3.61129 | 10368 ft | 284 kts | 202° |
| 2026-05-07 15:29 | 56.03876 | -3.61541 | 10618 ft | 308 kts | 175° |
| 2026-05-07 15:29 | 56.01736 | -3.60815 | 11177 ft | 317 kts | 173° |
| 2026-05-07 15:29 | 55.99560 | -3.60943 | 11817 ft | 315 kts | 199° |
| 2026-05-07 15:30 | 55.97643 | -3.62760 | 12634 ft | 313 kts | 219° |
| 2026-05-07 15:30 | 55.96143 | -3.65569 | 13410 ft | 316 kts | 234° |
| 2026-05-07 15:30 | 55.95179 | -3.69127 | 14100 ft | 324 kts | 252° |
| 2026-05-07 15:30 | 55.94940 | -3.73109 | 14744 ft | 334 kts | 271° |
| 2026-05-07 15:31 | 55.95559 | -3.77167 | 15405 ft | 349 kts | 293° |
| 2026-05-07 15:31 | 55.97024 | -3.80697 | 16066 ft | 362 kts | 313° |
| 2026-05-07 15:31 | 55.99134 | -3.83276 | 16721 ft | 375 kts | 332° |
| 2026-05-07 15:31 | 56.01682 | -3.84500 | 17358 ft | 387 kts | 354° |
| 2026-05-07 15:32 | 56.04386 | -3.84177 | 18042 ft | 393 kts | 9° |
| 2026-05-07 15:32 | 56.07057 | -3.82995 | 18644 ft | 398 kts | 17° |
| 2026-05-07 15:32 | 56.09637 | -3.81126 | 19202 ft | 403 kts | 28° |
| 2026-05-07 15:32 | 56.12018 | -3.78446 | 19772 ft | 406 kts | 36° |
| 2026-05-07 15:33 | 56.14281 | -3.75491 | 20342 ft | 410 kts | 37° |
| 2026-05-07 15:33 | 56.16594 | -3.72459 | 20892 ft | 414 kts | 36° |
| 2026-05-07 15:33 | 56.18954 | -3.69439 | 21438 ft | 419 kts | 36° |
| 2026-05-07 15:33 | 56.21348 | -3.66405 | 21982 ft | 423 kts | 36° |
| 2026-05-07 15:34 | 56.23761 | -3.63325 | 22548 ft | 427 kts | 36° |
| 2026-05-07 15:34 | 56.26185 | -3.60208 | 23091 ft | 431 kts | 36° |
| 2026-05-07 15:34 | 56.28641 | -3.57040 | 23529 ft | 437 kts | 36° |
| 2026-05-07 15:34 | 56.31123 | -3.53837 | 23946 ft | 440 kts | 36° |
| 2026-05-07 15:35 | 56.33611 | -3.50629 | 24442 ft | 442 kts | 36° |
| 2026-05-07 15:35 | 56.36083 | -3.47439 | 24901 ft | 444 kts | 36° |
| 2026-05-07 15:35 | 56.38598 | -3.44186 | 25328 ft | 446 kts | 36° |
| 2026-05-07 15:35 | 56.41116 | -3.40923 | 25875 ft | 445 kts | 36° |
| 2026-05-07 15:36 | 56.43637 | -3.37648 | 26323 ft | 448 kts | 36° |
| 2026-05-07 15:36 | 56.46191 | -3.34378 | 26691 ft | 452 kts | 34° |
| 2026-05-07 15:36 | 56.48794 | -3.31150 | 27061 ft | 455 kts | 34° |
| 2026-05-07 15:36 | 56.51419 | -3.27931 | 27482 ft | 457 kts | 34° |
| 2026-05-07 15:37 | 56.54058 | -3.24693 | 27884 ft | 460 kts | 34° |
| 2026-05-07 15:37 | 56.56718 | -3.21412 | 28171 ft | 465 kts | 34° |
| 2026-05-07 15:37 | 56.59356 | -3.18139 | 28536 ft | 467 kts | 34° |
| 2026-05-07 15:37 | 56.62036 | -3.14800 | 28937 ft | 469 kts | 34° |
| 2026-05-07 15:38 | 56.64728 | -3.11438 | 29314 ft | 471 kts | 34° |
| 2026-05-07 15:38 | 56.67434 | -3.08053 | 29662 ft | 473 kts | 34° |
| 2026-05-07 15:38 | 56.70148 | -3.04654 | 29983 ft | 475 kts | 34° |
| 2026-05-07 15:38 | 56.72880 | -3.01226 | 30254 ft | 478 kts | 34° |
| 2026-05-07 15:39 | 56.75625 | -2.97775 | 30533 ft | 480 kts | 34° |
| 2026-05-07 15:39 | 56.78380 | -2.94306 | 30803 ft | 482 kts | 35° |
| 2026-05-07 15:39 | 56.81108 | -2.90863 | 31071 ft | 484 kts | 34° |
| 2026-05-07 15:39 | 56.83884 | -2.87354 | 31311 ft | 487 kts | 34° |
| 2026-05-07 15:40 | 56.86674 | -2.83821 | 31544 ft | 489 kts | 34° |
| 2026-05-07 15:40 | 56.89469 | -2.80274 | 31850 ft | 489 kts | 34° |
| 2026-05-07 15:40 | 56.92261 | -2.76725 | 32217 ft | 488 kts | 35° |
| 2026-05-07 15:40 | 56.95048 | -2.73175 | 32581 ft | 488 kts | 35° |
| 2026-05-07 15:41 | 56.97834 | -2.69621 | 32888 ft | 488 kts | 35° |
| 2026-05-07 15:41 | 57.00621 | -2.66057 | 33189 ft | 489 kts | 35° |
| 2026-05-07 15:41 | 57.03410 | -2.62486 | 33508 ft | 488 kts | 35° |
| 2026-05-07 15:41 | 57.06155 | -2.58964 | 33841 ft | 488 kts | 35° |
| 2026-05-07 15:42 | 57.08936 | -2.55389 | 34134 ft | 488 kts | 35° |
| 2026-05-07 15:42 | 57.11721 | -2.51801 | 34363 ft | 489 kts | 35° |
| 2026-05-07 15:42 | 57.14503 | -2.48212 | 34616 ft | 489 kts | 35° |
| 2026-05-07 15:42 | 57.17282 | -2.44619 | 34939 ft | 487 kts | 35° |
| 2026-05-07 15:43 | 57.20046 | -2.41040 | 35276 ft | 484 kts | 35° |
| 2026-05-07 15:43 | 57.22798 | -2.37469 | 35563 ft | 483 kts | 35° |
| 2026-05-07 15:43 | 57.25538 | -2.33908 | 35924 ft | 479 kts | 35° |
| 2026-05-07 15:43 | 57.28249 | -2.30373 | 36297 ft | 476 kts | 36° |
| 2026-05-07 15:44 | 57.30794 | -2.26451 | 36486 ft | 477 kts | 45° |
| 2026-05-07 15:44 | 57.32962 | -2.21920 | 36634 ft | 477 kts | 56° |
| 2026-05-07 15:44 | 57.34843 | -2.16865 | 36866 ft | 476 kts | 57° |
| 2026-05-07 15:44 | 57.36677 | -2.11744 | 36981 ft | 479 kts | 58° |
| 2026-05-07 15:45 | 57.40355 | -2.01378 | 36952 ft | 481 kts | 58° |
| 2026-05-07 15:45 | 57.44044 | -1.91080 | 36955 ft | 477 kts | 57° |
| 2026-05-07 15:46 | 57.49526 | -1.75871 | 36938 ft | 472 kts | 57° |
| 2026-05-07 15:47 | 57.53171 | -1.65728 | 36959 ft | 471 kts | 57° |
| 2026-05-07 15:47 | 57.56804 | -1.55566 | 36961 ft | 472 kts | 57° |
| 2026-05-07 15:48 | 57.60440 | -1.45349 | 36965 ft | 474 kts | 57° |
| 2026-05-07 15:48 | 57.64066 | -1.35116 | 36979 ft | 477 kts | 57° |
| 2026-05-07 15:49 | 57.67733 | -1.24723 | 36973 ft | 481 kts | 57° |
| 2026-05-07 15:49 | 57.71414 | -1.14248 | 36982 ft | 483 kts | 57° |
| 2026-05-07 15:50 | 57.75106 | -1.03693 | 36972 ft | 486 kts | 57° |
| 2026-05-07 15:50 | 57.78778 | -0.93147 | 36980 ft | 487 kts | 57° |
| 2026-05-07 15:51 | 57.82472 | -0.82494 | 36976 ft | 487 kts | 57° |
| 2026-05-07 15:51 | 57.86155 | -0.71824 | 36986 ft | 486 kts | 57° |
| 2026-05-07 15:52 | 57.89818 | -0.61163 | 36986 ft | 485 kts | 58° |
| 2026-05-07 15:52 | 57.93460 | -0.50515 | 37000 ft | 483 kts | 57° |
| 2026-05-07 15:53 | 57.97061 | -0.39944 | 36999 ft | 482 kts | 57° |
| 2026-05-07 15:53 | 58.00668 | -0.29303 | 36997 ft | 481 kts | 58° |
| 2026-05-07 15:54 | 58.04263 | -0.18652 | 36993 ft | 481 kts | 58° |
| 2026-05-07 15:54 | 58.07843 | -0.07998 | 36994 ft | 481 kts | 58° |
| 2026-05-07 15:55 | 58.11394 | 0.02618 | 36992 ft | 481 kts | 58° |
| 2026-05-07 15:55 | 58.14959 | 0.13322 | 37003 ft | 481 kts | 58° |
| 2026-05-07 15:56 | 58.18515 | 0.24050 | 37002 ft | 481 kts | 58° |
| 2026-05-07 15:56 | 58.22070 | 0.34820 | 37020 ft | 482 kts | 58° |
| 2026-05-07 15:57 | 58.25599 | 0.45563 | 37021 ft | 483 kts | 58° |
| 2026-05-07 15:57 | 58.29152 | 0.56430 | 37026 ft | 485 kts | 58° |
| 2026-05-07 15:58 | 58.32703 | 0.67338 | 37017 ft | 486 kts | 58° |
| 2026-05-07 15:58 | 58.36254 | 0.78298 | 37034 ft | 486 kts | 58° |
| 2026-05-07 15:59 | 58.39771 | 0.89204 | 37029 ft | 487 kts | 58° |
| 2026-05-07 15:59 | 58.43308 | 1.00225 | 37041 ft | 487 kts | 58° |
| 2026-05-07 16:00 | 58.46832 | 1.11254 | 37037 ft | 486 kts | 58° |
| 2026-05-07 16:00 | 58.50346 | 1.22303 | 37048 ft | 487 kts | 58° |
| 2026-05-07 16:01 | 58.53827 | 1.33301 | 37046 ft | 486 kts | 58° |
| 2026-05-07 16:01 | 58.57318 | 1.44383 | 37043 ft | 486 kts | 58° |
| 2026-05-07 16:02 | 58.60800 | 1.55490 | 37053 ft | 486 kts | 58° |
| 2026-05-07 16:02 | 58.64269 | 1.66605 | 37054 ft | 486 kts | 59° |
| 2026-05-07 16:03 | 58.67705 | 1.77670 | 37065 ft | 485 kts | 59° |
| 2026-05-07 16:03 | 58.71155 | 1.88831 | 37052 ft | 485 kts | 59° |
| 2026-05-07 16:04 | 58.74591 | 2.00004 | 37058 ft | 485 kts | 59° |
| 2026-05-07 16:04 | 58.78021 | 2.11198 | 37068 ft | 485 kts | 59° |
| 2026-05-07 16:05 | 58.81227 | 2.22534 | 37070 ft | 485 kts | 63° |
| 2026-05-07 16:05 | 58.84121 | 2.34293 | 37068 ft | 485 kts | 65° |
| 2026-05-07 16:06 | 58.86971 | 2.46124 | 37067 ft | 486 kts | 65° |
| 2026-05-07 16:06 | 58.89845 | 2.57947 | 37062 ft | 486 kts | 64° |
| 2026-05-07 16:07 | 58.92713 | 2.69689 | 37063 ft | 486 kts | 64° |
| 2026-05-07 16:07 | 58.95599 | 2.81534 | 37088 ft | 486 kts | 64° |
| 2026-05-07 16:08 | 58.98471 | 2.93393 | 37083 ft | 486 kts | 64° |
| 2026-05-07 16:08 | 59.01327 | 3.05255 | 37079 ft | 486 kts | 64° |
| 2026-05-07 16:09 | 59.04154 | 3.17061 | 37094 ft | 485 kts | 65° |
| 2026-05-07 16:09 | 59.06984 | 3.28950 | 37090 ft | 484 kts | 64° |
| 2026-05-07 16:10 | 59.09801 | 3.40844 | 37094 ft | 484 kts | 65° |
| 2026-05-07 16:10 | 59.12602 | 3.52741 | 37095 ft | 483 kts | 65° |
| 2026-05-07 16:11 | 59.15372 | 3.64566 | 37113 ft | 483 kts | 65° |
| 2026-05-07 16:11 | 59.18151 | 3.76495 | 37100 ft | 483 kts | 65° |
| 2026-05-07 16:12 | 59.20916 | 3.88435 | 37097 ft | 483 kts | 65° |
| 2026-05-07 16:12 | 59.23667 | 4.00379 | 37114 ft | 483 kts | 65° |
| 2026-05-07 16:13 | 59.26391 | 4.12273 | 37114 ft | 483 kts | 65° |
| 2026-05-07 16:13 | 59.29126 | 4.24281 | 37112 ft | 484 kts | 65° |
| 2026-05-07 16:14 | 59.31855 | 4.36330 | 37114 ft | 484 kts | 65° |
| 2026-05-07 16:14 | 59.34574 | 4.48405 | 37114 ft | 485 kts | 65° |
| 2026-05-07 16:15 | 59.37270 | 4.60443 | 37109 ft | 486 kts | 65° |
| 2026-05-07 16:15 | 59.39973 | 4.72584 | 37112 ft | 486 kts | 65° |
| 2026-05-07 16:16 | 59.42670 | 4.84772 | 37105 ft | 487 kts | 65° |
| 2026-05-07 16:16 | 59.45355 | 4.96969 | 37104 ft | 487 kts | 65° |
| 2026-05-07 16:17 | 59.48031 | 5.09202 | 37109 ft | 487 kts | 65° |
| 2026-05-07 16:17 | 59.50675 | 5.21360 | 37111 ft | 486 kts | 65° |
| 2026-05-07 16:18 | 59.53319 | 5.33590 | 37103 ft | 484 kts | 65° |
| 2026-05-07 16:18 | 59.55947 | 5.45812 | 37108 ft | 484 kts | 65° |
| 2026-05-07 16:19 | 59.58564 | 5.58057 | 37100 ft | 485 kts | 66° |
| 2026-05-07 16:19 | 59.61176 | 5.70353 | 37097 ft | 486 kts | 66° |
| 2026-05-07 16:20 | 59.63758 | 5.82590 | 37093 ft | 485 kts | 66° |
| 2026-05-07 16:20 | 59.66345 | 5.94906 | 37091 ft | 485 kts | 66° |
| 2026-05-07 16:21 | 59.68923 | 6.07259 | 37086 ft | 486 kts | 66° |
| 2026-05-07 16:21 | 59.71474 | 6.19557 | 37086 ft | 486 kts | 66° |
| 2026-05-07 16:22 | 59.74030 | 6.31960 | 37099 ft | 487 kts | 66° |
| 2026-05-07 16:22 | 59.76579 | 6.44398 | 37092 ft | 487 kts | 66° |
| 2026-05-07 16:23 | 59.79113 | 6.56844 | 37032 ft | 488 kts | 66° |
| 2026-05-07 16:23 | 59.80390 | 6.63141 | 36523 ft | 493 kts | 66° |
| 2026-05-07 16:23 | 59.81645 | 6.69355 | 36003 ft | 490 kts | 66° |
| 2026-05-07 16:23 | 59.82906 | 6.75621 | 35582 ft | 486 kts | 65° |
| 2026-05-07 16:24 | 59.84152 | 6.81832 | 35151 ft | 482 kts | 65° |
| 2026-05-07 16:24 | 59.85388 | 6.88006 | 34770 ft | 478 kts | 65° |
| 2026-05-07 16:24 | 59.86608 | 6.94125 | 34371 ft | 475 kts | 65° |
| 2026-05-07 16:24 | 59.87821 | 7.00221 | 33943 ft | 473 kts | 65° |
| 2026-05-07 16:25 | 59.89027 | 7.06299 | 33468 ft | 470 kts | 65° |
| 2026-05-07 16:25 | 59.90221 | 7.12337 | 33046 ft | 467 kts | 65° |
| 2026-05-07 16:25 | 59.91403 | 7.18335 | 32642 ft | 464 kts | 65° |
| 2026-05-07 16:25 | 59.92560 | 7.24220 | 32254 ft | 460 kts | 65° |
| 2026-05-07 16:26 | 59.93721 | 7.30142 | 31842 ft | 457 kts | 65° |
| 2026-05-07 16:26 | 59.94871 | 7.36030 | 31461 ft | 454 kts | 65° |
| 2026-05-07 16:26 | 59.96011 | 7.41882 | 31068 ft | 451 kts | 65° |
| 2026-05-07 16:26 | 59.96759 | 7.45733 | 30867 ft | 449 kts | 64° |
| 2026-05-07 16:27 | 59.98263 | 7.53490 | 30326 ft | 447 kts | 64° |
| 2026-05-07 16:27 | 59.99380 | 7.59274 | 29893 ft | 445 kts | 64° |
| 2026-05-07 16:27 | 60.00487 | 7.65019 | 29438 ft | 441 kts | 65° |
| 2026-05-07 16:27 | 60.01565 | 7.70639 | 29031 ft | 437 kts | 65° |
| 2026-05-07 16:28 | 60.02648 | 7.76297 | 28630 ft | 434 kts | 65° |
| 2026-05-07 16:28 | 60.03720 | 7.81916 | 28220 ft | 430 kts | 65° |
| 2026-05-07 16:28 | 60.04779 | 7.87480 | 27843 ft | 426 kts | 65° |
| 2026-05-07 16:28 | 60.05828 | 7.93006 | 27450 ft | 424 kts | 65° |
| 2026-05-07 16:29 | 60.06870 | 7.98507 | 27058 ft | 421 kts | 65° |
| 2026-05-07 16:29 | 60.07902 | 8.03974 | 26662 ft | 418 kts | 65° |
| 2026-05-07 16:29 | 60.08925 | 8.09411 | 26272 ft | 416 kts | 65° |
| 2026-05-07 16:29 | 60.09940 | 8.14819 | 25895 ft | 413 kts | 65° |
| 2026-05-07 16:30 | 60.10933 | 8.20121 | 25521 ft | 411 kts | 65° |
| 2026-05-07 16:30 | 60.11932 | 8.25470 | 25144 ft | 408 kts | 66° |
| 2026-05-07 16:30 | 60.12923 | 8.30793 | 24769 ft | 406 kts | 66° |
| 2026-05-07 16:30 | 60.13907 | 8.36093 | 24393 ft | 405 kts | 66° |
| 2026-05-07 16:31 | 60.14884 | 8.41372 | 24023 ft | 403 kts | 66° |
| 2026-05-07 16:31 | 60.15857 | 8.46640 | 23620 ft | 402 kts | 66° |
| 2026-05-07 16:31 | 60.16823 | 8.51890 | 23182 ft | 400 kts | 66° |
| 2026-05-07 16:31 | 60.17780 | 8.57102 | 22763 ft | 397 kts | 66° |
| 2026-05-07 16:32 | 60.18717 | 8.62219 | 22418 ft | 394 kts | 67° |
| 2026-05-07 16:32 | 60.19657 | 8.67366 | 22005 ft | 391 kts | 67° |
| 2026-05-07 16:32 | 60.20590 | 8.72488 | 21645 ft | 389 kts | 67° |
| 2026-05-07 16:32 | 60.21513 | 8.77570 | 21267 ft | 386 kts | 67° |
| 2026-05-07 16:33 | 60.22428 | 8.82621 | 20896 ft | 383 kts | 67° |
| 2026-05-07 16:33 | 60.23334 | 8.87639 | 20530 ft | 380 kts | 67° |
| 2026-05-07 16:33 | 60.24233 | 8.92625 | 20169 ft | 378 kts | 67° |
| 2026-05-07 16:33 | 60.25122 | 8.97572 | 19805 ft | 375 kts | 67° |
| 2026-05-07 16:34 | 60.25994 | 9.02433 | 19468 ft | 373 kts | 68° |
| 2026-05-07 16:34 | 60.26870 | 9.07335 | 19102 ft | 371 kts | 68° |
| 2026-05-07 16:34 | 60.27740 | 9.12212 | 18755 ft | 369 kts | 68° |
| 2026-05-07 16:34 | 60.28605 | 9.17071 | 18386 ft | 367 kts | 68° |
| 2026-05-07 16:35 | 60.29462 | 9.21899 | 17984 ft | 365 kts | 68° |
| 2026-05-07 16:35 | 60.30312 | 9.26696 | 17611 ft | 362 kts | 68° |
| 2026-05-07 16:35 | 60.31153 | 9.31463 | 17246 ft | 360 kts | 68° |
| 2026-05-07 16:35 | 60.31983 | 9.36179 | 17069 ft | 352 kts | 69° |
| 2026-05-07 16:36 | 60.32765 | 9.40819 | 16699 ft | 350 kts | 71° |
| 2026-05-07 16:36 | 60.33426 | 9.45472 | 16328 ft | 348 kts | 73° |
| 2026-05-07 16:36 | 60.34051 | 9.50169 | 15987 ft | 346 kts | 73° |
| 2026-05-07 16:36 | 60.34667 | 9.54848 | 15655 ft | 343 kts | 73° |
| 2026-05-07 16:37 | 60.35282 | 9.59476 | 15330 ft | 340 kts | 73° |
| 2026-05-07 16:37 | 60.35899 | 9.64070 | 15010 ft | 337 kts | 73° |
| 2026-05-07 16:37 | 60.36513 | 9.68621 | 14699 ft | 335 kts | 73° |
| 2026-05-07 16:37 | 60.37125 | 9.73154 | 14382 ft | 333 kts | 74° |
| 2026-05-07 16:38 | 60.37732 | 9.77649 | 14072 ft | 331 kts | 73° |
| 2026-05-07 16:38 | 60.38336 | 9.82117 | 13733 ft | 328 kts | 74° |
| 2026-05-07 16:38 | 60.38922 | 9.86480 | 13432 ft | 325 kts | 74° |
| 2026-05-07 16:38 | 60.39512 | 9.90883 | 13105 ft | 323 kts | 74° |
| 2026-05-07 16:39 | 60.40095 | 9.95246 | 12803 ft | 320 kts | 74° |
| 2026-05-07 16:39 | 60.40672 | 9.99560 | 12505 ft | 316 kts | 74° |
| 2026-05-07 16:39 | 60.41243 | 10.03842 | 12194 ft | 314 kts | 74° |
| 2026-05-07 16:39 | 60.41808 | 10.08088 | 11876 ft | 312 kts | 74° |
| 2026-05-07 16:40 | 60.42370 | 10.12319 | 11564 ft | 310 kts | 74° |
| 2026-05-07 16:40 | 60.42926 | 10.16521 | 11244 ft | 308 kts | 74° |
| 2026-05-07 16:40 | 60.43477 | 10.20694 | 10936 ft | 306 kts | 74° |
| 2026-05-07 16:40 | 60.44017 | 10.24787 | 10643 ft | 304 kts | 74° |
| 2026-05-07 16:41 | 60.44554 | 10.28868 | 10503 ft | 296 kts | 74° |
| 2026-05-07 16:41 | 60.45075 | 10.32848 | 10375 ft | 288 kts | 74° |
| 2026-05-07 16:41 | 60.45580 | 10.36719 | 10253 ft | 280 kts | 74° |
| 2026-05-07 16:41 | 60.46118 | 10.40460 | 10111 ft | 273 kts | 64° |
| 2026-05-07 16:42 | 60.46913 | 10.43948 | 9687 ft | 278 kts | 75° |
| 2026-05-07 16:42 | 60.46974 | 10.47823 | 9440 ft | 274 kts | 95° |
| 2026-05-07 16:42 | 60.46814 | 10.51678 | 9130 ft | 275 kts | 94° |
| 2026-05-07 16:42 | 60.46716 | 10.55485 | 8850 ft | 274 kts | 91° |
| 2026-05-07 16:43 | 60.46706 | 10.59325 | 8593 ft | 272 kts | 90° |
| 2026-05-07 16:43 | 60.46714 | 10.63154 | 8317 ft | 270 kts | 90° |
| 2026-05-07 16:43 | 60.46721 | 10.66947 | 8061 ft | 268 kts | 90° |
| 2026-05-07 16:43 | 60.46723 | 10.70675 | 7808 ft | 260 kts | 90° |
| 2026-05-07 16:44 | 60.46721 | 10.74252 | 7559 ft | 249 kts | 90° |
| 2026-05-07 16:44 | 60.46716 | 10.77740 | 7298 ft | 246 kts | 90° |
| 2026-05-07 16:44 | 60.46710 | 10.81200 | 7045 ft | 245 kts | 90° |
| 2026-05-07 16:44 | 60.46703 | 10.84604 | 6780 ft | 244 kts | 90° |
| 2026-05-07 16:45 | 60.46692 | 10.88025 | 6536 ft | 242 kts | 90° |
| 2026-05-07 16:45 | 60.46681 | 10.91426 | 6270 ft | 241 kts | 90° |
| 2026-05-07 16:45 | 60.46670 | 10.94807 | 6001 ft | 240 kts | 90° |
| 2026-05-07 16:45 | 60.46656 | 10.98175 | 5737 ft | 238 kts | 91° |
| 2026-05-07 16:46 | 60.46642 | 11.01486 | 5526 ft | 229 kts | 90° |
| 2026-05-07 16:46 | 60.46628 | 11.04639 | 5540 ft | 219 kts | 90° |
| 2026-05-07 16:46 | 60.46586 | 11.07487 | 5552 ft | 217 kts | 99° |
| 2026-05-07 16:46 | 60.46032 | 11.09880 | 5522 ft | 215 kts | 132° |
| 2026-05-07 16:47 | 60.45052 | 11.12120 | 5551 ft | 217 kts | 131° |
| 2026-05-07 16:47 | 60.44050 | 11.14500 | 5345 ft | 226 kts | 131° |
| 2026-05-07 16:47 | 60.43037 | 11.16908 | 5094 ft | 222 kts | 131° |
| 2026-05-07 16:47 | 60.42049 | 11.19249 | 4840 ft | 215 kts | 131° |
| 2026-05-07 16:48 | 60.41086 | 11.21529 | 4620 ft | 211 kts | 131° |
| 2026-05-07 16:48 | 60.39925 | 11.23262 | 4370 ft | 210 kts | 166° |
| 2026-05-07 16:48 | 60.38523 | 11.23025 | 4208 ft | 204 kts | 202° |
| 2026-05-07 16:48 | 60.37187 | 11.22053 | 4052 ft | 205 kts | 197° |
| 2026-05-07 16:49 | 60.35812 | 11.21294 | 3935 ft | 206 kts | 196° |
| 2026-05-07 16:49 | 60.34455 | 11.20533 | 3674 ft | 203 kts | 196° |
| 2026-05-07 16:49 | 60.33114 | 11.19763 | 3414 ft | 198 kts | 197° |
| 2026-05-07 16:49 | 60.31798 | 11.18999 | 3133 ft | 196 kts | 197° |
| 2026-05-07 16:50 | 60.30514 | 11.18260 | 2860 ft | 188 kts | 197° |
| 2026-05-07 16:50 | 60.29285 | 11.17550 | 2626 ft | 178 kts | 197° |
| 2026-05-07 16:50 | 60.28122 | 11.16877 | 2384 ft | 168 kts | 197° |
| 2026-05-07 16:50 | 60.27029 | 11.16245 | 2176 ft | 156 kts | 197° |
| 2026-05-07 16:51 | 60.26023 | 11.15663 | 1937 ft | 146 kts | 197° |
| 2026-05-07 16:51 | 60.25058 | 11.15105 | 1752 ft | 147 kts | 197° |
| 2026-05-07 16:51 | 60.24078 | 11.14538 | 1535 ft | 146 kts | 196° |
| 2026-05-07 16:51 | 60.23100 | 11.13972 | 1322 ft | 146 kts | 197° |
| 2026-05-07 16:52 | 60.22124 | 11.13406 | 1132 ft | 146 kts | 196° |
| 2026-05-07 16:52 | 60.21148 | 11.12833 | 946 ft | 147 kts | 197° |
| 2026-05-07 16:52 | 60.20164 | 11.12263 | 753 ft | 148 kts | 196° |
| 2026-05-07 16:52 | 60.19211 | 11.11713 | 682 ft | 129 kts | 195° |
| 2026-05-07 16:53 | 60.18556 | 11.11341 | 682 ft | 66 kts | 196° |
| 2026-05-07 16:53 | 60.18269 | 11.11176 | 681 ft | 36 kts | 197° |
| 2026-05-07 16:53 | 60.18066 | 11.10965 | 680 ft | 19 kts | 227° |
| 2026-05-07 16:53 | 60.18052 | 11.10717 | 676 ft | 20 kts | 286° |
| 2026-05-07 16:54 | 60.18085 | 11.10540 | 675 ft | 10 kts | 324° |
| 2026-05-07 16:54 | 60.18152 | 11.10550 | 679 ft | 10 kts | 14° |
| 2026-05-07 16:54 | 60.18216 | 11.10585 | 679 ft | 9 kts | 15° |
| 2026-05-07 16:54 | 60.18281 | 11.10622 | 679 ft | 10 kts | 15° |
| 2026-05-07 16:55 | 60.18354 | 11.10664 | 680 ft | 11 kts | 16° |
| 2026-05-07 16:55 | 60.18434 | 11.10711 | 680 ft | 13 kts | 16° |
| 2026-05-07 16:55 | 60.18521 | 11.10762 | 681 ft | 14 kts | 16° |
| 2026-05-07 16:55 | 60.18614 | 11.10815 | 680 ft | 14 kts | 16° |
| 2026-05-07 16:56 | 60.18709 | 11.10870 | 682 ft | 14 kts | 16° |
| 2026-05-07 16:56 | 60.18806 | 11.10925 | 682 ft | 15 kts | 15° |
| 2026-05-07 16:56 | 60.19019 | 11.11048 | 682 ft | 17 kts | 16° |
| 2026-05-07 16:57 | 60.19127 | 11.11112 | 683 ft | 16 kts | 17° |
| 2026-05-07 16:57 | 60.19234 | 11.11173 | 684 ft | 16 kts | 15° |
| 2026-05-07 16:57 | 60.19344 | 11.11237 | 680 ft | 17 kts | 16° |
| 2026-05-07 16:57 | 60.19436 | 11.11185 | 682 ft | 17 kts | 272° |
| 2026-05-07 16:58 | 60.19459 | 11.10958 | 682 ft | 16 kts | 286° |
| 2026-05-07 16:58 | 60.19486 | 11.10762 | 682 ft | 0 kts | 285° |
| 2026-05-07 16:59 | 60.19487 | 11.10753 | 682 ft | 1 kts | 285° |
| 2026-05-07 16:59 | 60.19489 | 11.10727 | 682 ft | 2 kts | 266° |
| 2026-05-07 16:59 | 60.19479 | 11.10702 | 683 ft | 2 kts | 220° |
| 2026-05-07 16:59 | 60.19463 | 11.10686 | 683 ft | 3 kts | 201° |
| 2026-05-07 17:00 | 60.19444 | 11.10676 | 680 ft | 3 kts | 194° |
| 2026-05-07 17:00 | 60.19415 | 11.10660 | 684 ft | 6 kts | 195° |
| 2026-05-07 17:00 | 60.19391 | 11.10646 | 684 ft | 0 kts | 196° |